createdAt,value
2017-09-19T00:02:05.467Z,13.00
2017-09-19T00:04:34.665Z,13.00
2017-09-19T00:07:04.058Z,12.90
2017-09-19T00:09:33.843Z,13.00
2017-09-19T00:12:03.097Z,13.00
2017-09-19T00:14:32.680Z,13.00
2017-09-19T00:17:01.855Z,13.00
2017-09-19T00:19:31.038Z,13.10
2017-09-19T00:22:00.655Z,13.10
2017-09-19T00:24:30.150Z,13.00
2017-09-19T00:26:59.860Z,13.00
2017-09-19T00:29:29.041Z,13.00
2017-09-19T00:31:58.246Z,13.00
2017-09-19T00:34:27.444Z,13.00
2017-09-19T00:36:56.666Z,12.90
2017-09-19T00:39:26.138Z,12.80
2017-09-19T00:41:55.307Z,12.70
2017-09-19T00:44:24.519Z,12.70
2017-09-19T00:46:53.751Z,12.80
2017-09-19T00:49:23.152Z,12.70
2017-09-19T00:51:52.486Z,12.70
2017-09-19T00:54:22.479Z,12.70
2017-09-19T00:56:52.118Z,12.70
2017-09-19T00:59:22.358Z,12.80
2017-09-19T01:01:51.694Z,12.80
2017-09-19T01:04:20.895Z,12.80
2017-09-19T01:06:50.107Z,12.90
2017-09-19T01:09:19.300Z,12.90
2017-09-19T01:11:49.500Z,12.80
2017-09-19T01:14:18.753Z,12.80
2017-09-19T01:16:47.918Z,12.80
2017-09-19T01:19:17.121Z,12.80
2017-09-19T01:21:47.272Z,12.80
2017-09-19T01:24:16.493Z,12.80
2017-09-19T01:26:45.763Z,12.80
2017-09-19T01:29:15.041Z,12.70
2017-09-19T01:31:45.155Z,12.60
2017-09-19T01:34:16.134Z,12.60
2017-09-19T01:36:45.330Z,12.60
2017-09-19T01:39:14.803Z,12.60
2017-09-19T01:41:44.182Z,12.60
2017-09-19T01:44:14.196Z,12.60
2017-09-19T01:46:43.363Z,12.60
2017-09-19T01:49:12.653Z,12.50
2017-09-19T01:51:42.394Z,12.50
2017-09-19T01:54:11.542Z,12.50
2017-09-19T01:56:40.737Z,12.40
2017-09-19T01:59:09.851Z,12.40
2017-09-19T02:01:39.058Z,12.40
2017-09-19T02:04:08.377Z,12.40
2017-09-19T02:06:37.587Z,12.40
2017-09-19T02:09:07.567Z,12.30
2017-09-19T02:11:37.005Z,12.30
2017-09-19T02:14:06.677Z,12.30
2017-09-19T02:16:36.366Z,12.30
2017-09-19T02:19:05.617Z,12.30
2017-09-19T02:21:35.554Z,12.40
2017-09-19T02:24:04.755Z,12.40
2017-09-19T02:26:34.943Z,12.40
2017-09-19T02:29:04.967Z,12.50
2017-09-19T02:31:34.728Z,12.40
2017-09-19T02:34:03.947Z,12.50
2017-09-19T02:36:33.882Z,12.50
2017-09-19T02:39:03.222Z,12.40
2017-09-19T02:41:33.038Z,12.40
2017-09-19T02:44:02.246Z,12.50
2017-09-19T02:46:31.477Z,12.50
2017-09-19T02:49:00.636Z,12.50
2017-09-19T02:51:29.858Z,12.50
2017-09-19T02:53:59.405Z,12.40
2017-09-19T02:56:29.299Z,12.50
2017-09-19T02:58:59.630Z,12.50
2017-09-19T03:01:44.164Z,12.50
2017-09-19T03:04:13.520Z,12.50
2017-09-19T03:06:42.771Z,12.40
2017-09-19T03:09:12.788Z,12.30
2017-09-19T03:11:42.733Z,12.30
2017-09-19T03:14:11.975Z,12.30
2017-09-19T03:16:41.771Z,12.30
2017-09-19T03:19:11.005Z,12.40
2017-09-19T03:21:41.025Z,12.40
2017-09-19T03:24:10.991Z,12.40
2017-09-19T03:26:40.185Z,12.40
2017-09-19T03:29:09.337Z,12.40
2017-09-19T03:31:39.262Z,12.50
2017-09-19T03:34:08.445Z,12.40
2017-09-19T03:36:38.404Z,12.40
2017-09-19T03:39:07.596Z,12.40
2017-09-19T03:41:36.799Z,12.40
2017-09-19T03:44:05.990Z,12.30
2017-09-19T03:46:35.218Z,12.40
2017-09-19T03:49:04.464Z,12.40
2017-09-19T03:51:33.994Z,12.30
2017-09-19T03:54:03.244Z,12.30
2017-09-19T03:56:33.886Z,12.40
2017-09-19T03:59:03.097Z,12.40
2017-09-19T04:01:32.406Z,12.30
2017-09-19T04:04:01.554Z,12.30
2017-09-19T04:06:31.541Z,12.40
2017-09-19T04:09:00.736Z,12.40
2017-09-19T04:11:29.947Z,12.40
2017-09-19T04:13:59.107Z,12.40
2017-09-19T04:16:28.291Z,12.20
2017-09-19T04:18:57.458Z,12.30
2017-09-19T04:21:27.406Z,12.30
2017-09-19T04:23:56.624Z,12.30
2017-09-19T04:26:25.953Z,12.30
2017-09-19T04:28:55.667Z,12.40
2017-09-19T04:31:24.946Z,12.40
2017-09-19T04:33:54.210Z,12.40
2017-09-19T04:36:23.570Z,12.40
2017-09-19T04:38:54.006Z,12.40
2017-09-19T04:41:24.086Z,12.40
2017-09-19T04:43:53.317Z,12.40
2017-09-19T04:46:23.545Z,12.50
2017-09-19T04:48:53.567Z,12.40
2017-09-19T04:51:22.765Z,12.40
2017-09-19T04:53:51.975Z,12.30
2017-09-19T04:56:21.157Z,12.40
2017-09-19T04:58:50.349Z,12.40
2017-09-19T05:01:19.583Z,12.40
2017-09-19T05:03:48.741Z,12.50
2017-09-19T05:06:18.722Z,12.40
2017-09-19T05:08:47.900Z,12.30
2017-09-19T05:11:17.094Z,12.40
2017-09-19T05:13:46.335Z,12.50
2017-09-19T05:16:16.618Z,12.40
2017-09-19T05:18:46.567Z,12.40
2017-09-19T05:21:16.691Z,12.00
2017-09-19T05:23:46.682Z,12.10
2017-09-19T05:26:15.864Z,12.00
2017-09-19T05:28:45.078Z,12.10
2017-09-19T05:31:14.327Z,12.10
2017-09-19T05:33:44.002Z,12.10
2017-09-19T05:36:13.982Z,12.00
2017-09-19T05:38:43.273Z,12.00
2017-09-19T05:41:12.574Z,12.00
2017-09-19T05:43:41.757Z,11.90
2017-09-19T05:46:11.361Z,12.00
2017-09-19T05:48:40.588Z,12.10
2017-09-19T05:51:10.639Z,12.10
2017-09-19T05:53:40.644Z,12.10
2017-09-19T05:56:10.652Z,12.30
2017-09-19T05:58:41.048Z,12.40
2017-09-19T06:01:10.341Z,12.40
2017-09-19T06:03:39.853Z,12.40
2017-09-19T06:06:09.087Z,12.50
2017-09-19T06:08:47.806Z,12.50
2017-09-19T06:11:17.967Z,12.40
2017-09-19T06:13:47.476Z,12.40
2017-09-19T06:16:16.698Z,12.30
2017-09-19T06:18:45.909Z,12.30
2017-09-19T06:21:15.128Z,12.20
2017-09-19T06:23:45.126Z,12.30
2017-09-19T06:26:15.449Z,12.20
2017-09-19T06:28:45.439Z,12.20
2017-09-19T06:31:14.655Z,12.20
2017-09-19T06:33:43.957Z,12.20
2017-09-19T06:36:13.203Z,12.30
2017-09-19T06:38:42.707Z,12.30
2017-09-19T06:41:11.928Z,12.40
2017-09-19T06:43:41.203Z,12.30
2017-09-19T06:46:10.367Z,12.20
2017-09-19T06:48:39.599Z,12.20
2017-09-19T06:51:08.820Z,12.40
2017-09-19T06:53:38.198Z,12.60
2017-09-19T06:56:07.698Z,12.60
2017-09-19T06:58:36.922Z,12.50
2017-09-19T07:01:06.156Z,12.40
2017-09-19T07:03:36.190Z,12.50
2017-09-19T07:06:05.404Z,12.50
2017-09-19T07:08:34.585Z,12.50
2017-09-19T07:11:03.800Z,12.40
2017-09-19T07:13:33.629Z,12.30
2017-09-19T07:16:03.398Z,12.30
2017-09-19T07:18:32.639Z,12.20
2017-09-19T07:21:01.847Z,12.10
2017-09-19T07:23:31.218Z,12.10
2017-09-19T07:26:00.754Z,12.00
2017-09-19T07:28:30.048Z,12.00
2017-09-19T07:30:59.511Z,12.00
2017-09-19T07:33:28.826Z,12.00
2017-09-19T07:38:57.896Z,12.00
2017-09-19T07:41:28.107Z,11.90
2017-09-19T07:43:59.708Z,12.00
2017-09-19T07:47:33.184Z,12.10
2017-09-19T07:50:02.584Z,12.10
2017-09-19T07:52:32.316Z,12.30
2017-09-19T07:55:02.047Z,12.40
2017-09-19T07:57:32.420Z,12.30
2017-09-19T08:00:01.853Z,12.20
2017-09-19T08:02:33.640Z,12.10
2017-09-19T08:05:02.936Z,12.10
2017-09-19T08:07:32.223Z,12.10
2017-09-19T08:10:04.750Z,12.20
2017-09-19T08:12:34.794Z,12.20
2017-09-19T08:15:04.882Z,12.20
2017-09-19T08:17:34.926Z,12.30
2017-09-19T08:20:04.306Z,12.30
2017-09-19T08:22:33.546Z,12.20
2017-09-19T08:25:03.858Z,12.50
2017-09-19T08:27:33.233Z,12.60
2017-09-19T08:30:02.620Z,12.60
2017-09-19T08:32:32.841Z,12.80
2017-09-19T08:35:02.911Z,12.60
2017-09-19T08:37:32.143Z,12.60
2017-09-19T08:40:02.160Z,12.70
2017-09-19T08:42:31.476Z,12.60
2017-09-19T08:45:00.832Z,12.60
2017-09-19T08:47:30.658Z,12.70
2017-09-19T08:49:59.925Z,12.80
2017-09-19T08:52:29.230Z,12.80
2017-09-19T08:54:58.595Z,12.90
2017-09-19T08:57:27.886Z,13.00
2017-09-19T09:02:37.833Z,13.10
2017-09-19T09:05:08.098Z,13.00
2017-09-19T09:07:37.434Z,13.00
2017-09-19T09:10:06.825Z,13.20
2017-09-19T09:12:36.223Z,13.20
2017-09-19T09:15:05.541Z,13.30
2017-09-19T09:17:36.455Z,13.30
2017-09-19T09:20:06.825Z,13.30
2017-09-19T09:22:37.771Z,13.20
2017-09-19T09:25:07.173Z,13.20
2017-09-19T09:27:36.458Z,13.30
2017-09-19T09:30:06.526Z,13.30
2017-09-19T09:32:35.904Z,13.20
2017-09-19T09:35:05.156Z,13.30
2017-09-19T09:37:34.403Z,13.20
2017-09-19T09:40:04.134Z,13.10
2017-09-19T09:42:33.418Z,13.00
2017-09-19T09:45:02.892Z,13.00
2017-09-19T09:47:32.293Z,13.00
2017-09-19T09:50:01.813Z,13.00
2017-09-19T09:52:31.152Z,13.10
2017-09-19T09:55:00.462Z,13.20
2017-09-19T09:57:29.766Z,13.30
2017-09-19T10:00:01.455Z,13.30
2017-09-19T10:02:30.759Z,13.40
2017-09-19T10:05:01.288Z,13.60
2017-09-19T10:07:30.580Z,13.40
2017-09-19T10:10:00.075Z,13.40
2017-09-19T10:12:30.103Z,13.70
2017-09-19T10:14:59.403Z,13.70
2017-09-19T10:17:28.668Z,14.00
2017-09-19T10:20:00.226Z,14.30
2017-09-19T10:22:30.395Z,14.50
2017-09-19T10:24:59.722Z,14.50
2017-09-19T10:27:29.766Z,14.90
2017-09-19T10:29:59.842Z,15.20
2017-09-19T10:32:29.250Z,15.20
2017-09-19T10:34:58.600Z,15.00
2017-09-19T10:37:28.295Z,14.90
2017-09-19T10:39:58.354Z,14.70
2017-09-19T10:42:29.452Z,14.60
2017-09-19T10:44:59.525Z,14.90
2017-09-19T10:47:29.562Z,14.90
2017-09-19T10:49:58.858Z,15.40
2017-09-19T10:52:28.137Z,15.60
2017-09-19T10:54:57.486Z,15.90
2017-09-19T10:57:27.599Z,16.30
2017-09-19T10:59:57.759Z,16.60
2017-09-19T11:02:27.249Z,16.60
2017-09-19T11:04:56.903Z,16.70
2017-09-19T11:07:26.347Z,16.60
2017-09-19T11:09:55.743Z,15.80
2017-09-19T11:12:26.685Z,14.70
2017-09-19T11:14:56.020Z,14.70
2017-09-19T11:17:25.768Z,14.60
2017-09-19T11:19:55.044Z,14.40
2017-09-19T11:22:24.955Z,14.40
2017-09-19T11:24:54.835Z,14.20
2017-09-19T11:27:27.134Z,14.00
2017-09-19T11:29:56.594Z,13.90
2017-09-19T11:32:25.931Z,14.00
2017-09-19T11:34:55.269Z,14.10
2017-09-19T11:37:24.646Z,14.50
2017-09-19T11:39:54.988Z,15.30
2017-09-19T11:42:24.376Z,16.10
2017-09-19T11:44:53.622Z,16.40
2017-09-19T11:47:23.005Z,17.00
2017-09-19T11:49:53.043Z,17.90
2017-09-19T11:52:22.478Z,17.90
2017-09-19T11:54:51.847Z,18.70
2017-09-19T11:57:23.725Z,19.10
2017-09-19T11:59:53.299Z,18.50
2017-09-19T12:02:22.685Z,17.80
2017-09-19T12:04:52.957Z,16.80
2017-09-19T12:07:22.355Z,16.70
2017-09-19T12:09:52.296Z,16.50
2017-09-19T12:12:21.790Z,16.00
2017-09-19T12:14:51.231Z,15.50
2017-09-19T12:17:21.796Z,15.00
2017-09-19T12:19:51.287Z,14.90
2017-09-19T12:22:21.143Z,14.90
2017-09-19T12:24:50.705Z,14.80
2017-09-19T12:27:20.290Z,14.70
2017-09-19T12:29:49.654Z,14.70
2017-09-19T12:32:19.088Z,14.40
2017-09-19T12:34:49.277Z,14.20
2017-09-19T12:37:18.648Z,14.20
2017-09-19T12:39:48.672Z,14.20
2017-09-19T12:42:18.149Z,14.10
2017-09-19T12:44:47.853Z,14.20
2017-09-19T12:47:17.189Z,14.10
2017-09-19T12:49:46.894Z,14.20
2017-09-19T12:52:19.176Z,14.30
2017-09-19T12:54:48.638Z,14.30
2017-09-19T12:57:18.816Z,14.20
2017-09-19T12:59:48.525Z,14.20
2017-09-19T13:02:19.409Z,14.20
2017-09-19T13:04:48.718Z,14.10
2017-09-19T13:07:18.210Z,14.10
2017-09-19T13:09:48.648Z,14.20
2017-09-19T13:12:18.850Z,14.20
2017-09-19T13:14:48.386Z,14.30
2017-09-19T13:17:18.375Z,14.20
2017-09-19T13:19:47.995Z,14.20
2017-09-19T13:22:24.465Z,14.40
2017-09-19T13:24:54.021Z,14.60
2017-09-19T13:27:24.648Z,14.50
2017-09-19T13:29:55.793Z,14.50
2017-09-19T13:34:35.600Z,14.60
2017-09-19T13:37:05.379Z,14.60
2017-09-19T13:39:34.818Z,14.80
2017-09-19T13:42:04.366Z,15.00
2017-09-19T13:44:33.990Z,15.10
2017-09-19T13:47:04.103Z,15.30
2017-09-19T13:49:33.824Z,15.30
2017-09-19T13:52:03.437Z,15.40
2017-09-19T13:54:33.036Z,15.60
2017-09-19T13:57:03.214Z,16.40
2017-09-19T13:59:32.716Z,16.40
2017-09-19T14:02:02.090Z,16.50
2017-09-19T14:04:32.302Z,16.00
2017-09-19T14:07:01.772Z,16.00
2017-09-19T14:09:31.897Z,15.20
2017-09-19T14:15:25.119Z,14.80
2017-09-19T14:17:54.652Z,14.70
2017-09-19T14:20:24.109Z,14.60
2017-09-19T14:22:53.993Z,14.40
2017-09-19T14:25:24.048Z,14.50
2017-09-19T14:27:53.503Z,14.40
2017-09-19T14:30:23.635Z,14.50
2017-09-19T14:32:53.110Z,14.50
2017-09-19T14:35:24.861Z,14.50
2017-09-19T14:37:55.109Z,14.40
2017-09-19T14:40:26.549Z,14.60
2017-09-19T14:42:56.953Z,14.80
2017-09-19T14:45:27.637Z,14.80
2017-09-19T14:47:57.149Z,14.90
2017-09-19T14:50:27.460Z,15.10
2017-09-19T14:52:56.789Z,15.30
2017-09-19T14:55:27.379Z,15.60
2017-09-19T14:57:56.957Z,15.70
2017-09-19T15:00:26.371Z,15.80
2017-09-19T15:02:57.488Z,16.10
2017-09-19T15:05:27.924Z,16.10
2017-09-19T15:07:59.428Z,16.00
2017-09-19T15:10:29.134Z,16.00
2017-09-19T15:12:58.757Z,15.70
2017-09-19T15:15:28.085Z,15.60
2017-09-19T15:17:57.894Z,15.50
2017-09-19T15:20:27.682Z,15.50
2017-09-19T15:22:57.369Z,15.40
2017-09-19T15:25:28.751Z,15.30
2017-09-19T15:27:59.149Z,15.00
2017-09-19T15:30:29.871Z,14.90
2017-09-19T15:32:59.625Z,14.90
2017-09-19T15:35:31.539Z,14.90
2017-09-19T15:38:03.917Z,14.90
2017-09-19T15:40:34.748Z,15.00
2017-09-19T15:43:04.513Z,14.90
2017-09-19T15:45:35.377Z,14.90
2017-09-19T15:48:05.648Z,15.10
2017-09-19T15:50:34.927Z,15.10
2017-09-19T15:53:04.471Z,15.10
2017-09-19T15:55:35.785Z,15.10
2017-09-19T15:58:07.744Z,15.10
2017-09-19T16:00:37.322Z,15.20
2017-09-19T16:03:06.872Z,15.00
2017-09-19T16:05:36.611Z,14.70
2017-09-19T16:08:07.709Z,14.70
2017-09-19T16:10:36.991Z,14.60
2017-09-19T16:13:06.544Z,14.70
2017-09-19T16:15:35.966Z,14.70
2017-09-19T16:18:06.116Z,14.60
2017-09-19T16:20:35.419Z,14.60
2017-09-19T16:23:04.750Z,14.60
2017-09-19T16:25:34.085Z,14.40
2017-09-19T16:28:04.180Z,14.50
2017-09-19T16:30:33.952Z,14.50
2017-09-19T16:33:04.329Z,14.50
2017-09-19T16:35:35.211Z,14.50
2017-09-19T16:38:05.425Z,14.50
2017-09-19T16:40:35.667Z,14.50
2017-09-19T16:43:06.304Z,14.50
2017-09-19T16:45:40.697Z,14.30
2017-09-19T16:48:11.217Z,14.20
2017-09-19T16:50:42.073Z,14.20
2017-09-19T16:53:11.473Z,14.20
2017-09-19T16:55:40.797Z,14.20
2017-09-19T16:58:11.027Z,14.10
2017-09-19T17:00:41.084Z,14.10
2017-09-19T17:03:11.813Z,14.10
2017-09-19T17:05:41.380Z,14.10
2017-09-19T17:08:13.630Z,14.00
2017-09-19T17:10:46.057Z,13.90
2017-09-19T17:13:16.754Z,13.80
2017-09-19T17:15:49.877Z,13.80
2017-09-19T17:18:23.894Z,13.70
2017-09-19T17:20:55.868Z,13.60
2017-09-19T17:23:29.817Z,13.50
2017-09-19T17:26:03.333Z,13.50
2017-09-19T17:28:36.737Z,13.40
2017-09-19T17:31:10.735Z,13.30
2017-09-19T17:33:44.449Z,13.20
2017-09-19T17:36:20.155Z,13.20
2017-09-19T17:38:54.074Z,13.20
2017-09-19T17:41:25.554Z,13.10
2017-09-19T17:43:58.804Z,13.00
2017-09-19T17:46:30.044Z,13.00
2017-09-19T17:49:03.009Z,12.90
2017-09-19T17:51:36.396Z,12.90
2017-09-19T17:54:09.161Z,12.80
2017-09-19T17:56:41.377Z,12.80
2017-09-19T17:59:11.911Z,12.80
2017-09-19T18:01:44.474Z,12.70
2017-09-19T18:04:20.239Z,12.70
2017-09-19T18:06:53.729Z,12.60
2017-09-19T18:09:26.692Z,12.60
2017-09-19T18:11:59.239Z,12.50
2017-09-19T18:14:30.811Z,12.50
2017-09-19T18:17:02.031Z,12.50
2017-09-19T18:19:34.656Z,12.50
2017-09-19T18:22:07.980Z,12.40
2017-09-19T18:24:42.235Z,12.30
2017-09-19T18:27:14.928Z,12.30
2017-09-19T18:29:46.412Z,12.30
2017-09-19T18:32:19.037Z,12.30
2017-09-19T18:34:51.571Z,12.30
2017-09-19T18:37:25.300Z,12.20
2017-09-19T18:39:56.279Z,12.10
2017-09-19T18:42:26.623Z,12.10
2017-09-19T18:44:58.317Z,12.10
2017-09-19T18:47:33.018Z,12.10
2017-09-19T18:50:11.416Z,12.00
2017-09-19T18:52:44.249Z,12.00
2017-09-19T18:55:17.336Z,11.90
2017-09-19T18:57:52.907Z,11.90
2017-09-19T19:00:26.717Z,11.90
2017-09-19T19:03:01.647Z,11.90
2017-09-19T19:05:34.429Z,11.90
2017-09-19T19:08:07.964Z,11.80
2017-09-19T19:10:38.790Z,11.70
2017-09-19T19:13:10.765Z,11.70
2017-09-19T19:15:41.022Z,11.70
2017-09-19T19:18:13.034Z,11.60
2017-09-19T19:20:45.395Z,11.60
2017-09-19T19:23:19.374Z,11.50
2017-09-19T19:25:51.349Z,11.60
2017-09-19T19:28:21.491Z,11.50
2017-09-19T19:30:51.959Z,11.50
2017-09-19T19:33:23.611Z,11.50
2017-09-19T19:35:54.884Z,11.50
2017-09-19T19:38:24.571Z,11.50
2017-09-19T19:40:55.497Z,11.40
2017-09-19T19:43:24.791Z,11.40
2017-09-19T19:45:54.476Z,11.30
2017-09-19T19:48:25.278Z,11.20
2017-09-19T19:50:55.184Z,11.10
2017-09-19T19:53:26.272Z,11.00
2017-09-19T19:55:57.694Z,11.00
2017-09-19T19:58:28.192Z,11.00
2017-09-19T20:00:58.360Z,11.00
2017-09-19T20:03:29.537Z,11.00
2017-09-19T20:05:59.638Z,11.00
2017-09-19T20:08:31.150Z,11.00
2017-09-19T20:11:00.569Z,11.00
2017-09-19T20:13:36.725Z,10.80
2017-09-19T20:16:08.168Z,10.60
2017-09-19T20:18:40.596Z,10.60
2017-09-19T20:21:10.297Z,10.40
2017-09-19T20:23:40.302Z,10.30
2017-09-19T20:26:10.359Z,10.50
2017-09-19T20:28:40.146Z,10.50
2017-09-19T20:31:09.703Z,10.50
2017-09-19T20:33:40.580Z,10.50
2017-09-19T20:36:10.206Z,10.40
2017-09-19T20:38:40.805Z,10.50
2017-09-19T20:41:10.142Z,10.60
2017-09-19T20:43:39.458Z,10.70
2017-09-19T20:46:09.711Z,10.60
2017-09-19T20:48:40.359Z,10.50
2017-09-19T20:51:09.694Z,10.50
2017-09-19T20:53:39.729Z,10.50
2017-09-19T20:56:10.155Z,10.40
2017-09-19T20:58:42.827Z,10.40
2017-09-19T21:01:12.506Z,10.30
2017-09-19T21:03:47.130Z,10.30
2017-09-19T21:06:21.572Z,10.20
2017-09-19T21:08:56.539Z,10.20
2017-09-19T21:11:31.859Z,10.30
2017-09-19T21:14:10.178Z,10.30
2017-09-19T21:16:46.604Z,10.20
2017-09-19T21:19:21.185Z,10.20
2017-09-19T21:21:58.392Z,10.00
2017-09-19T21:24:27.858Z,10.00
2017-09-19T21:27:02.230Z,9.80
2017-09-19T21:29:35.995Z,9.80
2017-09-19T21:32:05.255Z,10.00
2017-09-19T21:34:34.621Z,10.00
2017-09-19T21:37:03.805Z,10.00
2017-09-19T21:39:33.071Z,10.10
2017-09-19T21:42:05.456Z,10.00
2017-09-19T21:44:35.454Z,9.80
2017-09-19T21:47:05.038Z,9.80
2017-09-19T21:49:34.476Z,9.80
2017-09-19T21:52:06.354Z,9.70
2017-09-19T21:54:36.074Z,9.70
2017-09-19T21:57:05.301Z,9.80
2017-09-19T21:59:35.783Z,9.70
2017-09-19T22:02:05.077Z,9.70
2017-09-19T22:04:34.840Z,9.60
2017-09-19T22:07:04.099Z,9.60
2017-09-19T22:09:33.645Z,9.50
2017-09-19T22:12:02.837Z,9.50
2017-09-19T22:14:32.042Z,9.60
2017-09-19T22:17:01.833Z,9.60
2017-09-19T22:19:38.121Z,9.70
2017-09-19T22:22:07.277Z,9.80
2017-09-19T22:24:40.162Z,9.90
2017-09-19T22:27:10.516Z,9.80
2017-09-19T22:29:40.916Z,9.70
2017-09-19T22:32:10.110Z,9.80
2017-09-19T22:34:39.684Z,9.90
2017-09-19T22:37:08.930Z,10.00
2017-09-19T22:39:39.055Z,10.00
2017-09-19T22:42:08.287Z,10.10
2017-09-19T22:44:38.870Z,10.10
2017-09-19T22:47:08.079Z,10.10
2017-09-19T22:58:09.322Z,10.10
2017-09-19T23:00:39.674Z,10.20
2017-09-19T23:03:09.192Z,10.20
2017-09-19T23:05:38.540Z,10.10
2017-09-19T23:08:08.668Z,10.20
2017-09-19T23:10:37.804Z,10.20
2017-09-19T23:13:06.971Z,10.10
2017-09-19T23:15:36.157Z,10.10
2017-09-19T23:18:05.539Z,10.10
2017-09-19T23:20:35.331Z,10.10
2017-09-19T23:23:04.702Z,10.00
2017-09-19T23:25:34.171Z,10.00
2017-09-19T23:28:03.550Z,10.10
2017-09-19T23:30:33.445Z,10.10
2017-09-19T23:33:03.160Z,10.20
2017-09-19T23:35:34.534Z,10.20
2017-09-19T23:38:03.778Z,10.20
2017-09-19T23:40:32.902Z,10.20
2017-09-19T23:43:02.028Z,10.20
2017-09-19T23:45:31.142Z,10.30
2017-09-19T23:48:01.164Z,10.30
2017-09-19T23:50:30.634Z,10.20
2017-09-19T23:52:59.729Z,10.20
2017-09-19T23:55:28.837Z,10.20
2017-09-19T23:57:58.275Z,10.30
